CSG3 weather

Joliette Airport
Joliette, Quebec, Canada

Public forecast

Using degrees Celsius for public forecast. Weather courtesy of forecast.io.

METAR (pilot weather report)

Closest report is Montreal International (Mirabel) Airport, 31.4 nm (58.1 km) SW. Retrieved 2019/06/17 10:00 UTC (2 minutes ago):

CYMX 171000Z 27003KT 250V360 45SM FEW050 FEW220 08/07 A2999 RMK SC1CI1 SC TR CI TR SLP158

TAF (pilot weather forecast)

Closest forecast is Montreal International (Mirabel) Airport, 31.4 nm (58.1 km) SW. Retrieved 2019/06/17 06:42 UTC (3 hours ago):

TAF CYMX 170538Z 1706/1806 VRB03KT P6SM FEW060 FEW250 FM171600 26008KT P6SM SCT050 FM172100 27006KT P6SM SKC RMK NXT FCST BY 171200Z